createdAt,value
2022-12-22T05:00:32.232Z,1.40
2022-12-22T05:03:04.015Z,1.37
2022-12-22T05:05:35.823Z,1.40
2022-12-22T05:08:07.491Z,1.40
2022-12-22T05:10:39.115Z,1.67
2022-12-22T05:13:10.753Z,1.77
2022-12-22T05:15:43.745Z,1.77
2022-12-22T05:18:15.438Z,1.70
2022-12-22T05:20:47.111Z,1.50
2022-12-22T05:23:18.812Z,1.87
2022-12-22T05:25:50.461Z,2.17
2022-12-22T05:28:22.149Z,2.93
2022-12-22T05:30:55.353Z,2.53
2022-12-22T05:33:27.034Z,2.53
2022-12-22T05:35:58.667Z,3.17
2022-12-22T05:38:30.301Z,3.13
2022-12-22T05:41:04.562Z,3.10
2022-12-22T05:43:36.446Z,3.27
2022-12-22T05:46:10.130Z,3.40
2022-12-22T05:48:41.897Z,3.60
2022-12-22T05:51:13.529Z,4.67
2022-12-22T05:53:45.196Z,4.37
2022-12-22T05:56:16.838Z,4.30
2022-12-22T05:58:48.508Z,4.30
2022-12-22T06:01:21.685Z,3.50
2022-12-22T06:03:59.507Z,5.10
2022-12-22T06:06:31.955Z,4.70
2022-12-22T06:09:03.730Z,4.33
2022-12-22T06:11:35.391Z,4.30
2022-12-22T06:14:07.059Z,4.35
2022-12-22T06:16:40.127Z,4.93
2022-12-22T06:19:11.838Z,5.33
2022-12-22T06:21:43.487Z,5.63
2022-12-22T06:24:15.131Z,5.23
2022-12-22T06:26:46.773Z,5.10
2022-12-22T06:29:18.425Z,5.50
2022-12-22T06:31:51.414Z,5.60
2022-12-22T06:34:23.053Z,4.83
2022-12-22T06:36:54.691Z,4.30
2022-12-22T06:39:26.362Z,5.10
2022-12-22T06:41:58.033Z,5.60
2022-12-22T06:44:29.684Z,5.97
2022-12-22T06:47:02.670Z,6.27
2022-12-22T06:49:34.344Z,5.13
2022-12-22T06:52:07.387Z,6.50
2022-12-22T06:54:39.038Z,6.30
2022-12-22T06:57:10.703Z,7.17
2022-12-22T06:59:42.439Z,7.67
2022-12-22T07:02:15.550Z,7.53
2022-12-22T07:04:47.321Z,7.70
2022-12-22T07:07:18.959Z,7.20
2022-12-22T07:09:50.626Z,6.93
2022-12-22T07:12:22.333Z,7.00
2022-12-22T07:14:53.996Z,7.67
2022-12-22T07:17:26.978Z,7.97
2022-12-22T07:19:58.657Z,8.70
2022-12-22T07:22:31.205Z,8.30
2022-12-22T07:25:03.061Z,9.30
2022-12-22T07:27:34.722Z,8.60
2022-12-22T07:30:07.512Z,9.90
2022-12-22T07:32:40.498Z,10.10
2022-12-22T07:35:12.232Z,10.47
2022-12-22T07:37:43.887Z,10.37
2022-12-22T07:40:16.016Z,9.93
2022-12-22T07:42:47.704Z,10.83
2022-12-22T07:45:19.934Z,10.67
2022-12-22T07:47:58.248Z,9.83
2022-12-22T07:50:29.941Z,10.60
2022-12-22T07:53:02.551Z,10.10
2022-12-22T07:55:35.778Z,10.50
2022-12-22T07:58:07.444Z,10.57
2022-12-22T08:00:39.148Z,10.20
2022-12-22T08:03:12.369Z,10.60
2022-12-22T08:05:44.163Z,9.53
2022-12-22T08:08:15.822Z,10.63
2022-12-22T08:10:47.502Z,9.60
2022-12-22T08:13:19.204Z,9.73
2022-12-22T08:15:50.910Z,10.43
2022-12-22T08:18:23.942Z,10.27
2022-12-22T08:20:55.630Z,9.63
2022-12-22T08:23:27.287Z,8.60
2022-12-22T08:26:00.338Z,10.27
2022-12-22T08:28:33.204Z,9.53
2022-12-22T08:31:05.185Z,9.10
2022-12-22T08:33:38.212Z,9.20
2022-12-22T08:36:10.053Z,9.70
2022-12-22T08:38:41.718Z,10.53
2022-12-22T08:41:14.178Z,10.57
2022-12-22T08:43:45.821Z,10.77
2022-12-22T08:46:17.619Z,10.13
2022-12-22T08:48:50.660Z,10.83
2022-12-22T08:51:22.353Z,10.90
2022-12-22T08:54:09.431Z,11.77
2022-12-22T08:56:41.299Z,12.33
2022-12-22T08:59:13.147Z,12.20
2022-12-22T09:01:45.298Z,13.13
2022-12-22T09:04:19.447Z,14.07
2022-12-22T09:06:51.723Z,12.87
2022-12-22T09:09:23.396Z,14.13
2022-12-22T09:11:55.088Z,14.03
2022-12-22T09:14:27.036Z,15.27
2022-12-22T09:16:58.830Z,14.90
2022-12-22T09:19:31.918Z,15.90
2022-12-22T09:22:03.604Z,16.30
2022-12-22T09:24:35.268Z,17.33
2022-12-22T09:27:06.961Z,16.23
2022-12-22T09:29:39.917Z,17.53
2022-12-22T09:32:11.712Z,17.83
2022-12-22T09:34:44.755Z,19.50
2022-12-22T09:37:16.724Z,18.17
2022-12-22T09:39:48.472Z,19.57
2022-12-22T09:42:20.614Z,18.20
2022-12-22T09:44:52.313Z,17.70
2022-12-22T09:47:26.245Z,16.63
2022-12-22T09:49:59.262Z,16.50
2022-12-22T09:52:39.279Z,15.03
2022-12-22T09:55:15.950Z,16.37
2022-12-22T09:57:47.627Z,15.73
2022-12-22T10:00:21.041Z,15.80
2022-12-22T10:02:56.276Z,15.10
2022-12-22T10:05:32.038Z,15.73
2022-12-22T10:08:09.950Z,15.83
2022-12-22T10:10:41.678Z,15.87
2022-12-22T10:13:17.073Z,14.87
2022-12-22T10:15:49.061Z,13.37
2022-12-22T10:18:21.616Z,15.03
2022-12-22T10:21:09.111Z,15.57
2022-12-22T10:23:43.890Z,16.00
2022-12-22T10:26:28.135Z,17.23
2022-12-22T10:29:03.346Z,16.43
2022-12-22T10:31:35.480Z,17.03
2022-12-22T10:34:11.573Z,17.33
2022-12-22T10:36:46.945Z,19.70
2022-12-22T10:39:22.830Z,17.90
2022-12-22T10:41:56.269Z,18.60
2022-12-22T10:44:28.812Z,18.27
2022-12-22T10:47:01.744Z,18.07
2022-12-22T10:52:13.678Z,17.27
2022-12-22T10:54:45.422Z,17.80
2022-12-22T10:57:28.951Z,17.53
2022-12-22T11:00:01.856Z,17.43
2022-12-22T11:02:34.552Z,17.97
2022-12-22T11:05:07.495Z,16.20
2022-12-22T11:07:41.176Z,15.63
2022-12-22T11:10:17.608Z,17.20
2022-12-22T11:13:14.811Z,15.27
2022-12-22T11:15:49.259Z,16.13
2022-12-22T11:18:36.599Z,13.80
2022-12-22T11:21:10.258Z,12.47
2022-12-22T11:23:46.327Z,12.47
2022-12-22T11:26:21.786Z,10.30
2022-12-22T11:29:05.472Z,10.67
2022-12-22T11:31:45.203Z,10.80
2022-12-22T11:34:22.338Z,10.23
2022-12-22T11:37:00.314Z,10.70
2022-12-22T11:39:37.822Z,10.47
2022-12-22T11:42:22.276Z,11.23
2022-12-22T11:45:00.265Z,10.63
2022-12-22T11:47:37.163Z,10.93
2022-12-22T11:51:02.031Z,11.30
2022-12-22T11:53:31.525Z,10.83
2022-12-22T11:56:12.112Z,11.03
2022-12-22T11:58:52.289Z,10.20
2022-12-22T12:01:36.786Z,11.00
2022-12-22T12:04:20.803Z,9.87
2022-12-22T12:07:22.028Z,9.63
2022-12-22T12:10:02.880Z,9.27
2022-12-22T12:12:40.772Z,8.73
2022-12-22T12:15:20.630Z,9.33
2022-12-22T12:18:31.166Z,9.33
2022-12-22T12:21:26.077Z,9.67
2022-12-22T12:24:15.314Z,11.63
2022-12-22T12:26:52.373Z,11.23
2022-12-22T12:29:26.586Z,10.90
2022-12-22T12:31:59.868Z,11.53
2022-12-22T12:34:32.486Z,11.23
2022-12-22T12:37:07.829Z,10.83
2022-12-22T12:39:41.075Z,10.80
2022-12-22T12:42:19.614Z,10.63
2022-12-22T12:44:52.711Z,8.70
2022-12-22T12:47:26.091Z,8.93
2022-12-22T12:49:59.426Z,8.30
2022-12-22T12:53:13.750Z,7.67
2022-12-22T12:56:06.773Z,6.63
2022-12-22T12:58:51.647Z,6.73
2022-12-22T13:01:56.033Z,6.93
2022-12-22T13:05:13.986Z,7.63
2022-12-22T13:08:16.565Z,7.43
2022-12-22T13:10:50.516Z,7.03
2022-12-22T13:13:44.869Z,7.67
2022-12-22T13:16:37.935Z,7.17
2022-12-22T13:19:23.194Z,6.90
2022-12-22T13:21:55.383Z,7.30
2022-12-22T13:24:29.747Z,6.97
2022-12-22T13:27:03.540Z,7.10
2022-12-22T13:29:43.434Z,7.13
2022-12-22T13:32:20.897Z,7.60
2022-12-22T13:37:56.466Z,5.70
2022-12-22T13:40:28.440Z,5.47
2022-12-22T13:43:02.095Z,6.90
2022-12-22T13:45:36.252Z,7.90
2022-12-22T13:48:10.159Z,6.83
2022-12-22T13:50:45.149Z,7.30
2022-12-22T13:53:49.543Z,5.93
2022-12-22T13:56:13.398Z,7.80
2022-12-22T13:58:45.093Z,7.93
2022-12-22T14:01:18.422Z,7.23
2022-12-22T14:04:00.619Z,7.47
2022-12-22T14:06:35.098Z,7.17
2022-12-22T14:09:11.144Z,7.77
2022-12-22T14:11:50.740Z,7.30
2022-12-22T14:14:27.254Z,8.17
2022-12-22T14:16:59.519Z,6.83
2022-12-22T14:19:32.977Z,7.07
2022-12-22T14:22:08.616Z,6.33
2022-12-22T14:24:42.885Z,7.53
2022-12-22T14:27:18.279Z,9.00
2022-12-22T14:29:49.982Z,7.50
2022-12-22T14:32:38.837Z,7.27
2022-12-22T14:35:25.434Z,6.63
2022-12-22T14:38:20.319Z,6.40
2022-12-22T14:40:56.838Z,6.73
2022-12-22T14:43:30.498Z,5.80
2022-12-22T14:46:04.683Z,6.57
2022-12-22T14:48:38.002Z,6.50
2022-12-22T14:51:09.691Z,5.30
2022-12-22T14:53:45.265Z,6.00
2022-12-22T14:56:17.059Z,6.93
2022-12-22T14:58:49.077Z,6.63
2022-12-22T15:01:22.201Z,5.93
2022-12-22T15:04:01.654Z,5.93
2022-12-22T15:06:38.362Z,4.20
2022-12-22T15:10:03.657Z,4.80
2022-12-22T15:12:17.529Z,4.60
2022-12-22T15:14:49.339Z,5.23
2022-12-22T15:17:22.100Z,4.17
2022-12-22T15:19:55.221Z,4.97
2022-12-22T15:22:26.881Z,4.27
2022-12-22T15:24:59.913Z,4.83
2022-12-22T15:27:31.580Z,5.50
2022-12-22T15:30:03.572Z,4.77
2022-12-22T15:32:37.948Z,5.60
2022-12-22T15:35:17.506Z,5.87
2022-12-22T15:37:49.237Z,5.77
2022-12-22T15:40:22.935Z,6.77
2022-12-22T15:42:54.692Z,6.40
2022-12-22T15:45:26.349Z,6.47
2022-12-22T15:47:58.126Z,6.93
2022-12-22T15:50:38.711Z,7.33
2022-12-22T15:53:13.959Z,6.53
2022-12-22T15:55:48.441Z,7.37
2022-12-22T15:58:21.569Z,7.70
2022-12-22T16:00:53.292Z,7.20
2022-12-22T16:03:25.143Z,6.70
2022-12-22T16:05:56.953Z,6.13
2022-12-22T16:08:30.802Z,6.47
2022-12-22T16:11:03.863Z,6.40
2022-12-22T16:13:36.046Z,6.20
2022-12-22T16:16:07.972Z,6.93
2022-12-22T16:18:39.688Z,5.73
2022-12-22T16:21:14.186Z,6.40
2022-12-22T16:23:46.579Z,5.50
2022-12-22T16:26:20.111Z,5.77
2022-12-22T16:28:51.792Z,5.20
2022-12-22T16:31:24.171Z,5.57
2022-12-22T16:33:55.945Z,5.67
2022-12-22T16:36:27.595Z,6.10
2022-12-22T16:38:59.285Z,5.60
2022-12-22T16:41:32.301Z,5.60
2022-12-22T16:44:05.996Z,4.37
2022-12-22T16:46:38.184Z,3.80
2022-12-22T16:49:09.896Z,3.27
2022-12-22T16:51:45.111Z,3.20
2022-12-22T16:54:16.818Z,2.80
2022-12-22T16:56:49.824Z,2.97
2022-12-22T16:59:21.478Z,2.93
2022-12-22T17:01:53.993Z,2.47
2022-12-22T17:04:27.931Z,6.43
2022-12-22T17:07:00.220Z,3.40
2022-12-22T17:09:42.005Z,4.20
2022-12-22T17:12:17.667Z,8.10
2022-12-22T17:15:01.343Z,4.27
2022-12-22T17:17:37.138Z,7.23
2022-12-22T17:20:14.086Z,15.80
2022-12-22T17:22:46.927Z,7.73
2022-12-22T17:25:20.228Z,3.60
2022-12-22T17:27:53.360Z,2.10
2022-12-22T17:30:25.960Z,2.50
2022-12-22T17:32:57.635Z,1.90
2022-12-22T17:35:29.304Z,2.07
2022-12-22T17:38:00.946Z,1.90
2022-12-22T17:40:32.664Z,1.70
2022-12-22T17:43:05.721Z,2.57
2022-12-22T17:45:37.392Z,2.43
2022-12-22T17:48:09.046Z,2.30
2022-12-22T17:50:40.938Z,2.30
2022-12-22T17:53:14.115Z,2.23
2022-12-22T17:58:38.790Z,2.37
2022-12-22T18:01:19.434Z,2.20
2022-12-22T18:03:51.229Z,2.00
2022-12-22T18:06:25.226Z,2.10
2022-12-22T18:08:56.884Z,1.93
2022-12-22T18:11:28.551Z,2.47
2022-12-22T18:14:01.574Z,2.53
2022-12-22T18:16:33.297Z,2.23
2022-12-22T18:19:04.979Z,2.47
2022-12-22T18:21:36.669Z,2.50
2022-12-22T18:24:10.311Z,2.27
2022-12-22T18:26:42.053Z,2.20
2022-12-22T18:29:15.421Z,2.33
2022-12-22T18:31:47.242Z,2.40
2022-12-22T18:34:18.975Z,2.00
2022-12-22T18:36:50.651Z,2.03
2022-12-22T18:39:22.335Z,2.30
2022-12-22T18:41:54.023Z,2.20
2022-12-22T18:44:27.061Z,2.30
2022-12-22T18:46:58.777Z,2.47
2022-12-22T18:49:30.711Z,2.20
2022-12-22T18:52:02.438Z,2.53
2022-12-22T18:54:34.099Z,2.77
2022-12-22T18:57:08.684Z,3.13
2022-12-22T18:59:41.798Z,2.70
2022-12-22T19:02:19.976Z,3.03
2022-12-22T19:04:51.697Z,3.17
2022-12-22T19:07:24.359Z,3.07
2022-12-22T19:09:56.011Z,3.33
2022-12-22T19:12:27.679Z,3.40
2022-12-22T19:15:03.693Z,4.10
2022-12-22T19:17:35.352Z,3.30
2022-12-22T19:20:11.064Z,4.30
2022-12-22T19:22:43.184Z,4.00
2022-12-22T19:25:15.020Z,4.00
2022-12-22T19:27:46.915Z,3.30
2022-12-22T19:30:20.878Z,4.03
2022-12-22T19:32:54.164Z,3.70
2022-12-22T19:35:25.956Z,3.97
2022-12-22T19:37:57.985Z,4.10
2022-12-22T19:40:30.835Z,4.37
2022-12-22T19:43:02.513Z,4.30
2022-12-22T19:45:35.639Z,4.37
2022-12-22T19:48:15.151Z,4.20
2022-12-22T19:50:46.893Z,4.37
2022-12-22T19:53:18.691Z,3.97
2022-12-22T19:55:51.331Z,4.67
2022-12-22T19:58:24.197Z,4.33
2022-12-22T20:00:57.269Z,3.87
2022-12-22T20:03:29.064Z,4.30
2022-12-22T20:06:00.802Z,4.47
2022-12-22T20:08:32.496Z,4.17
2022-12-22T20:11:05.970Z,4.47
2022-12-22T20:13:37.629Z,5.03
2022-12-22T20:16:12.610Z,4.63
2022-12-22T20:18:44.354Z,4.50
2022-12-22T20:21:17.882Z,4.90
2022-12-22T20:23:49.572Z,4.97
2022-12-22T20:26:22.167Z,4.57
2022-12-22T20:28:54.016Z,3.97
2022-12-22T20:31:27.064Z,4.20
2022-12-22T20:33:58.745Z,5.07
2022-12-22T20:36:30.422Z,4.43
2022-12-22T20:39:02.208Z,4.60
2022-12-22T20:41:33.880Z,4.30
2022-12-22T20:44:05.889Z,4.30
2022-12-22T20:46:38.993Z,4.60
2022-12-22T20:49:12.908Z,5.50
2022-12-22T20:51:44.578Z,6.87
2022-12-22T20:54:16.395Z,5.60
2022-12-22T20:56:48.078Z,6.00
2022-12-22T20:59:21.166Z,5.43
2022-12-22T21:01:54.263Z,5.90
2022-12-22T21:04:26.012Z,6.13
2022-12-22T21:06:57.742Z,5.47
2022-12-22T21:09:29.432Z,4.90
2022-12-22T21:12:01.108Z,6.70
2022-12-22T21:14:32.751Z,6.47
2022-12-22T21:17:07.015Z,5.43
2022-12-22T21:19:38.731Z,5.80
2022-12-22T21:22:11.372Z,6.33
2022-12-22T21:24:43.029Z,6.13
2022-12-22T21:27:16.934Z,6.30
2022-12-22T21:29:48.599Z,6.20
2022-12-22T21:32:21.634Z,5.50
2022-12-22T21:34:53.286Z,6.00
2022-12-22T21:37:24.961Z,6.23
2022-12-22T21:39:56.649Z,5.57
2022-12-22T21:42:28.316Z,5.60
2022-12-22T21:44:59.982Z,5.67
2022-12-22T21:47:33.008Z,5.30
2022-12-22T21:50:05.539Z,6.50
2022-12-22T21:52:37.205Z,5.40
2022-12-22T21:55:08.956Z,5.03
2022-12-22T21:57:40.605Z,5.80
2022-12-22T22:00:13.424Z,5.73
2022-12-22T22:02:46.714Z,5.93
2022-12-22T22:05:23.499Z,5.60
2022-12-22T22:07:55.535Z,6.00
2022-12-22T22:10:28.644Z,5.93
2022-12-22T22:13:00.738Z,6.30
2022-12-22T22:15:32.524Z,6.03
2022-12-22T22:18:07.527Z,5.70
2022-12-22T22:20:40.878Z,5.87
2022-12-22T22:23:13.536Z,5.27
2022-12-22T22:25:45.203Z,5.97
2022-12-22T22:28:16.886Z,5.67
2022-12-22T22:30:48.599Z,5.70
2022-12-22T22:33:21.645Z,5.90
2022-12-22T22:35:53.334Z,5.53
2022-12-22T22:38:25.000Z,5.30
2022-12-22T22:40:56.643Z,5.27
2022-12-22T22:43:28.318Z,4.50
2022-12-22T22:45:59.991Z,4.57
2022-12-22T22:48:33.111Z,4.13
2022-12-22T22:51:05.094Z,5.40
2022-12-22T22:53:36.751Z,4.63
2022-12-22T22:56:08.461Z,4.17
2022-12-22T22:58:40.156Z,4.27
